createdAt,value
2018-01-18T00:01:54.812Z,99.70
2018-01-18T00:04:22.454Z,98.20
2018-01-18T00:06:50.128Z,99.20
2018-01-18T00:09:17.732Z,98.90
2018-01-18T00:11:45.373Z,99.00
2018-01-18T00:14:12.968Z,99.00
2018-01-18T00:16:40.576Z,98.80
2018-01-18T00:19:08.977Z,97.80
2018-01-18T00:21:36.588Z,97.70
2018-01-18T00:24:04.192Z,98.30
2018-01-18T00:26:31.834Z,97.30
2018-01-18T00:28:59.428Z,97.00
2018-01-18T00:31:27.041Z,97.70
2018-01-18T00:33:55.444Z,97.30
2018-01-18T00:36:23.049Z,97.10
2018-01-18T00:38:50.658Z,97.80
2018-01-18T00:41:19.064Z,98.50
2018-01-18T00:43:47.424Z,98.40
2018-01-18T00:46:15.029Z,98.40
2018-01-18T00:48:43.440Z,97.40
2018-01-18T00:51:11.052Z,97.40
2018-01-18T00:53:38.671Z,96.90
2018-01-18T00:56:07.068Z,99.10
2018-01-18T00:58:35.436Z,99.60
2018-01-18T01:01:03.041Z,99.50
2018-01-18T01:03:30.681Z,99.90
2018-01-18T01:05:58.281Z,99.90
2018-01-18T01:08:26.641Z,99.90
2018-01-18T01:10:54.273Z,99.90
2018-01-18T01:13:21.877Z,99.90
2018-01-18T01:15:49.484Z,99.90
2018-01-18T01:18:17.889Z,99.90
2018-01-18T01:20:45.497Z,99.90
2018-01-18T01:23:13.105Z,99.90
2018-01-18T01:25:40.732Z,99.90
2018-01-18T01:28:08.336Z,99.90
2018-01-18T01:30:35.941Z,99.90
2018-01-18T01:33:04.345Z,99.90
2018-01-18T01:35:31.949Z,99.90
2018-01-18T01:37:59.560Z,99.90
2018-01-18T01:40:27.204Z,99.90
2018-01-18T01:42:54.813Z,99.90
2018-01-18T01:45:22.425Z,99.90
2018-01-18T01:47:50.060Z,99.90
2018-01-18T01:50:17.669Z,99.90
2018-01-18T01:52:45.273Z,99.90
2018-01-18T01:55:12.909Z,99.90
2018-01-18T01:57:40.520Z,99.50
2018-01-18T02:00:08.118Z,98.10
2018-01-18T02:02:35.757Z,98.10
2018-01-18T02:05:03.358Z,97.30
2018-01-18T02:07:30.969Z,96.10
2018-01-18T02:09:59.365Z,96.50
2018-01-18T02:12:27.736Z,94.00
2018-01-18T02:14:55.345Z,94.00
2018-01-18T02:17:22.976Z,93.20
2018-01-18T02:19:50.576Z,93.10
2018-01-18T02:22:18.937Z,91.50
2018-01-18T02:24:46.569Z,91.40
2018-01-18T02:27:14.173Z,90.00
2018-01-18T02:29:41.772Z,90.00
2018-01-18T02:32:10.166Z,90.00
2018-01-18T02:34:38.532Z,90.60
2018-01-18T02:37:06.706Z,90.60
2018-01-18T02:39:34.332Z,91.60
2018-01-18T02:42:02.696Z,88.90
2018-01-18T02:44:30.302Z,88.70
2018-01-18T02:46:57.933Z,89.70
2018-01-18T02:49:25.540Z,87.00
2018-01-18T02:51:53.914Z,89.60
2018-01-18T02:54:21.557Z,89.60
2018-01-18T02:56:49.210Z,87.20
2018-01-18T02:59:16.809Z,86.70
2018-01-18T03:01:44.480Z,85.10
2018-01-18T03:04:12.083Z,85.20
2018-01-18T03:06:39.681Z,84.60
2018-01-18T03:09:07.320Z,86.60
2018-01-18T03:11:34.912Z,83.70
2018-01-18T03:14:03.284Z,82.30
2018-01-18T03:16:30.912Z,82.30
2018-01-18T03:18:58.549Z,80.90
2018-01-18T03:21:26.152Z,83.90
2018-01-18T03:23:53.830Z,82.10
2018-01-18T03:26:21.440Z,82.10
2018-01-18T03:28:49.037Z,81.60
2018-01-18T03:31:16.677Z,82.20
2018-01-18T03:33:44.281Z,83.70
2018-01-18T03:36:11.923Z,80.90
2018-01-18T03:38:39.553Z,81.50
2018-01-18T03:41:08.890Z,83.20
2018-01-18T03:43:36.497Z,83.20
2018-01-18T03:46:04.137Z,80.20
2018-01-18T03:48:31.732Z,80.60
2018-01-18T03:50:59.384Z,80.90
2018-01-18T03:53:27.016Z,84.10
2018-01-18T03:55:54.621Z,83.90
2018-01-18T03:58:22.218Z,83.40
2018-01-18T04:00:49.856Z,82.90
2018-01-18T04:03:18.218Z,80.80
2018-01-18T04:05:45.826Z,80.70
2018-01-18T04:08:14.232Z,80.20
2018-01-18T04:10:41.828Z,80.20
2018-01-18T04:13:09.428Z,80.00
2018-01-18T04:15:37.058Z,78.90
2018-01-18T04:18:04.652Z,77.10
2018-01-18T04:20:32.257Z,80.70
2018-01-18T04:22:59.899Z,78.10
2018-01-18T04:25:27.501Z,78.30
2018-01-18T04:27:55.112Z,78.00
2018-01-18T04:30:22.749Z,77.70
2018-01-18T04:32:50.360Z,78.70
2018-01-18T04:35:17.969Z,76.80
2018-01-18T04:37:45.600Z,77.50
2018-01-18T04:40:13.965Z,77.80
2018-01-18T04:42:41.565Z,77.80
2018-01-18T04:45:09.206Z,76.80
2018-01-18T04:47:36.800Z,75.70
2018-01-18T04:50:05.170Z,75.80
2018-01-18T04:52:32.808Z,75.80
2018-01-18T04:55:00.406Z,75.80
2018-01-18T04:57:28.009Z,76.00
2018-01-18T04:59:56.413Z,76.20
2018-01-18T05:02:24.792Z,76.10
2018-01-18T05:04:53.172Z,76.30
2018-01-18T05:07:20.806Z,75.60
2018-01-18T05:09:48.409Z,75.20
2018-01-18T05:12:16.233Z,75.30
2018-01-18T05:14:43.885Z,75.80
2018-01-18T05:17:12.265Z,75.30
2018-01-18T05:19:39.877Z,75.30
2018-01-18T05:22:07.510Z,74.80
2018-01-18T05:24:35.108Z,75.50
2018-01-18T05:27:03.477Z,75.80
2018-01-18T05:29:31.113Z,75.80
2018-01-18T05:31:58.728Z,74.80
2018-01-18T05:34:26.334Z,74.30
2018-01-18T05:36:53.973Z,74.90
2018-01-18T05:39:21.575Z,74.80
2018-01-18T05:41:49.496Z,76.30
2018-01-18T05:44:17.129Z,76.10
2018-01-18T05:46:44.733Z,75.10
2018-01-18T05:49:12.337Z,75.10
2018-01-18T05:51:39.968Z,74.90
2018-01-18T05:54:07.617Z,73.80
2018-01-18T05:56:36.219Z,73.90
2018-01-18T05:59:04.916Z,75.20
2018-01-18T06:01:33.284Z,74.10
2018-01-18T06:04:00.893Z,74.10
2018-01-18T06:06:28.529Z,75.10
2018-01-18T06:08:56.140Z,74.90
2018-01-18T06:11:23.749Z,75.30
2018-01-18T06:13:51.388Z,75.40
2018-01-18T06:16:18.990Z,74.00
2018-01-18T06:18:46.602Z,72.60
2018-01-18T06:21:14.237Z,74.00
2018-01-18T06:23:41.848Z,73.20
2018-01-18T06:26:09.461Z,72.90
2018-01-18T06:28:37.142Z,73.70
2018-01-18T06:31:04.756Z,73.20
2018-01-18T06:33:32.369Z,72.60
2018-01-18T06:36:00.770Z,72.30
2018-01-18T06:38:28.372Z,72.30
2018-01-18T06:40:55.972Z,73.60
2018-01-18T06:43:23.609Z,72.70
2018-01-18T06:45:51.241Z,71.20
2018-01-18T06:48:18.865Z,70.50
2018-01-18T06:50:46.501Z,70.50
2018-01-18T06:53:14.877Z,70.70
2018-01-18T06:55:43.256Z,71.20
2018-01-18T06:58:10.899Z,71.10
2018-01-18T07:00:38.505Z,69.70
2018-01-18T07:03:06.119Z,69.70
2018-01-18T07:05:33.757Z,70.60
2018-01-18T07:08:01.374Z,69.20
2018-01-18T07:10:28.981Z,69.80
2018-01-18T07:12:56.624Z,69.40
2018-01-18T07:15:24.556Z,67.00
2018-01-18T07:17:52.177Z,67.70
2018-01-18T07:20:19.816Z,68.70
2018-01-18T07:22:48.180Z,68.70
2018-01-18T07:25:15.793Z,68.60
2018-01-18T07:27:44.192Z,66.20
2018-01-18T07:30:11.793Z,66.20
2018-01-18T07:32:39.404Z,68.70
2018-01-18T07:35:07.038Z,65.80
2018-01-18T07:37:34.640Z,66.30
2018-01-18T07:40:02.246Z,64.00
2018-01-18T07:42:30.645Z,64.00
2018-01-18T07:44:58.253Z,64.00
2018-01-18T07:47:25.853Z,63.70
2018-01-18T07:49:53.484Z,63.20
2018-01-18T07:52:21.088Z,64.00
2018-01-18T07:54:48.688Z,63.10
2018-01-18T07:57:21.969Z,65.70
2018-01-18T07:59:49.577Z,66.10
2018-01-18T08:02:17.954Z,70.60
2018-01-18T08:04:45.587Z,70.60
2018-01-18T08:07:13.197Z,73.60
2018-01-18T08:09:40.801Z,75.70
2018-01-18T08:12:21.353Z,77.40
2018-01-18T08:14:48.969Z,78.70
2018-01-18T08:17:16.565Z,79.60
2018-01-18T08:19:44.200Z,80.50
2018-01-18T08:22:12.569Z,80.60
2018-01-18T08:24:40.174Z,80.60
2018-01-18T08:27:07.838Z,81.40
2018-01-18T08:29:36.201Z,81.30
2018-01-18T08:32:03.809Z,81.30
2018-01-18T08:34:31.444Z,81.10
2018-01-18T08:36:59.053Z,79.60
2018-01-18T08:39:27.429Z,81.30
2018-01-18T08:41:55.068Z,81.20
2018-01-18T08:44:22.674Z,80.40
2018-01-18T08:46:50.281Z,78.50
2018-01-18T08:49:17.940Z,78.00
2018-01-18T08:51:46.309Z,75.80
2018-01-18T08:54:13.916Z,75.90
2018-01-18T08:56:41.556Z,75.40
2018-01-18T08:59:09.156Z,75.00
2018-01-18T09:01:37.520Z,74.10
2018-01-18T09:04:05.153Z,74.20
2018-01-18T09:06:32.752Z,73.70
2018-01-18T09:09:00.344Z,72.40
2018-01-18T09:11:27.978Z,72.50
2018-01-18T09:13:55.585Z,71.50
2018-01-18T09:16:23.192Z,71.80
2018-01-18T09:18:51.592Z,72.90
2018-01-18T09:21:19.193Z,72.90
2018-01-18T09:23:46.793Z,75.30
2018-01-18T09:26:14.477Z,76.60
2018-01-18T09:28:42.081Z,77.20
2018-01-18T09:31:10.444Z,79.30
2018-01-18T09:33:38.849Z,82.20
2018-01-18T09:36:07.217Z,82.80
2018-01-18T09:38:34.824Z,82.80
2018-01-18T09:41:03.218Z,85.90
2018-01-18T09:43:30.826Z,85.90
2018-01-18T09:45:58.424Z,86.80
2018-01-18T09:48:26.049Z,88.20
2018-01-18T09:50:53.649Z,90.10
2018-01-18T09:53:21.252Z,91.70
2018-01-18T09:55:48.885Z,93.10
2018-01-18T09:58:16.489Z,93.00
2018-01-18T10:00:44.084Z,92.80
2018-01-18T10:03:11.713Z,91.60
2018-01-18T10:05:39.313Z,91.50
2018-01-18T10:08:06.904Z,90.10
2018-01-18T10:10:34.532Z,88.60
2018-01-18T10:13:02.133Z,88.70
2018-01-18T10:15:29.737Z,87.40
2018-01-18T10:17:58.139Z,84.00
2018-01-18T10:20:26.514Z,83.60
2018-01-18T10:22:54.116Z,83.60
2018-01-18T10:25:21.742Z,81.60
2018-01-18T10:27:49.349Z,80.00
2018-01-18T10:30:17.784Z,78.10
2018-01-18T10:32:45.448Z,78.10
2018-01-18T10:35:13.042Z,77.00
2018-01-18T10:37:40.641Z,76.80
2018-01-18T10:40:08.278Z,75.40
2018-01-18T10:42:35.916Z,75.60
2018-01-18T10:45:04.305Z,78.00
2018-01-18T10:47:31.940Z,78.00
2018-01-18T10:49:59.544Z,77.60
2018-01-18T10:52:27.985Z,78.60
2018-01-18T10:54:55.627Z,78.60
2018-01-18T10:57:23.229Z,79.60
2018-01-18T10:59:50.828Z,79.90
2018-01-18T11:02:18.452Z,80.00
2018-01-18T11:04:46.053Z,76.50
2018-01-18T11:07:13.658Z,76.00
2018-01-18T11:09:41.308Z,74.40
2018-01-18T11:12:08.904Z,75.80
2018-01-18T11:14:36.510Z,73.60
2018-01-18T11:17:04.140Z,72.90
2018-01-18T11:19:31.737Z,73.80
2018-01-18T11:21:59.340Z,73.10
2018-01-18T11:24:26.968Z,72.70
2018-01-18T11:26:54.568Z,72.60
2018-01-18T11:29:22.942Z,75.80
2018-01-18T11:31:50.572Z,75.70
2018-01-18T11:34:18.181Z,76.30
2018-01-18T11:36:45.773Z,77.30
2018-01-18T11:39:14.586Z,75.40
2018-01-18T11:41:42.948Z,76.80
2018-01-18T11:44:10.580Z,76.90
2018-01-18T11:46:38.237Z,74.80
2018-01-18T11:49:05.932Z,74.40
2018-01-18T11:51:33.557Z,73.80
2018-01-18T11:54:01.185Z,72.50
2018-01-18T11:56:28.788Z,71.20
2018-01-18T11:58:56.394Z,69.20
2018-01-18T12:01:24.788Z,68.00
2018-01-18T12:03:53.152Z,67.20
2018-01-18T12:06:20.753Z,67.20
2018-01-18T12:08:49.148Z,62.20
2018-01-18T12:11:17.512Z,61.60
2018-01-18T12:13:45.113Z,61.50
2018-01-18T12:16:12.750Z,61.60
2018-01-18T12:18:40.353Z,60.10
2018-01-18T12:21:08.712Z,59.40
2018-01-18T12:23:36.349Z,59.30
2018-01-18T12:26:03.953Z,60.40
2018-01-18T12:28:31.557Z,60.60
2018-01-18T12:30:59.957Z,59.40
2018-01-18T12:33:28.321Z,58.60
2018-01-18T12:35:55.920Z,58.70
2018-01-18T12:38:24.365Z,58.80
2018-01-18T12:40:51.980Z,58.70
2018-01-18T12:43:20.349Z,59.20
2018-01-18T12:45:48.103Z,59.30
2018-01-18T12:48:15.711Z,59.70
2018-01-18T12:50:43.313Z,60.60
2018-01-18T12:53:10.954Z,60.60
2018-01-18T12:55:38.560Z,60.40
2018-01-18T12:58:06.171Z,58.90
2018-01-18T13:00:33.813Z,56.90
2018-01-18T13:03:01.417Z,55.60
2018-01-18T13:05:29.029Z,55.40
2018-01-18T13:07:56.656Z,54.50
2018-01-18T13:10:24.289Z,51.70
2018-01-18T13:12:52.658Z,44.10
2018-01-18T13:15:20.293Z,44.10
2018-01-18T13:17:47.904Z,40.30
2018-01-18T13:20:15.504Z,42.40
2018-01-18T13:22:43.905Z,48.10
2018-01-18T13:25:11.505Z,48.10
2018-01-18T13:27:39.109Z,45.10
2018-01-18T13:30:06.764Z,59.30
2018-01-18T13:32:34.373Z,62.40
2018-01-18T13:35:01.968Z,69.50
2018-01-18T13:37:30.369Z,66.30
2018-01-18T13:39:57.964Z,66.30
2018-01-18T13:42:25.572Z,58.20
2018-01-18T13:44:53.204Z,53.10
2018-01-18T13:47:20.801Z,50.20
2018-01-18T13:49:48.409Z,47.40
2018-01-18T13:52:16.053Z,46.60
2018-01-18T13:54:43.649Z,43.10
2018-01-18T13:57:11.244Z,41.80
2018-01-18T13:59:39.645Z,40.60
2018-01-18T14:02:07.269Z,40.60
2018-01-18T14:04:34.877Z,40.70
2018-01-18T14:07:03.273Z,41.30
2018-01-18T14:09:31.645Z,41.10
2018-01-18T14:11:59.250Z,40.90
2018-01-18T14:14:26.893Z,41.20
2018-01-18T14:16:54.502Z,42.00
2018-01-18T14:19:22.112Z,40.50
2018-01-18T14:21:49.749Z,41.50
2018-01-18T14:24:17.402Z,42.10
2018-01-18T14:26:45.777Z,38.80
2018-01-18T14:29:13.416Z,38.80
2018-01-18T14:31:41.029Z,37.20
2018-01-18T14:34:08.636Z,35.90
2018-01-18T14:36:36.268Z,36.00
2018-01-18T14:39:03.875Z,35.30
2018-01-18T14:41:31.483Z,35.80
2018-01-18T14:43:59.112Z,34.60
2018-01-18T14:46:27.485Z,35.10
2018-01-18T14:48:55.097Z,35.10
2018-01-18T14:51:22.736Z,33.70
2018-01-18T14:53:50.346Z,26.50
2018-01-18T14:56:17.945Z,21.00
2018-01-18T14:58:45.583Z,19.70
2018-01-18T15:01:13.184Z,18.00
2018-01-18T15:03:40.780Z,18.20
2018-01-18T15:06:08.404Z,17.00
2018-01-18T15:08:36.764Z,17.50
2018-01-18T15:11:04.364Z,17.60
2018-01-18T15:13:32.802Z,17.60
2018-01-18T15:16:01.209Z,18.00
2018-01-18T15:18:28.809Z,17.50
2018-01-18T15:20:56.444Z,17.00
2018-01-18T15:23:24.049Z,16.30
2018-01-18T15:25:51.651Z,16.40
2018-01-18T15:28:19.289Z,16.20
2018-01-18T15:30:46.900Z,16.90
2018-01-18T15:33:14.528Z,16.90
2018-01-18T15:35:42.162Z,17.70
2018-01-18T15:38:09.765Z,17.50
2018-01-18T15:40:37.370Z,18.50
2018-01-18T15:43:05.784Z,18.30
2018-01-18T15:45:33.381Z,18.00
2018-01-18T15:48:00.994Z,18.80
2018-01-18T15:50:28.641Z,18.70
2018-01-18T15:52:56.241Z,19.00
2018-01-18T15:55:23.898Z,19.00
2018-01-18T15:57:51.533Z,18.30
2018-01-18T16:00:19.891Z,18.40
2018-01-18T16:02:47.497Z,18.90
2018-01-18T16:05:15.133Z,19.50
2018-01-18T16:07:42.850Z,19.20
2018-01-18T16:10:10.461Z,19.30
2018-01-18T16:12:38.100Z,19.70
2018-01-18T16:15:05.709Z,19.80
2018-01-18T16:17:33.301Z,20.60
2018-01-18T16:20:00.933Z,20.00
2018-01-18T16:22:28.529Z,20.20
2018-01-18T16:24:56.214Z,20.60
2018-01-18T16:27:23.820Z,20.50
2018-01-18T16:29:52.193Z,21.20
2018-01-18T16:32:19.908Z,21.20
2018-01-18T16:34:47.549Z,22.10
2018-01-18T16:37:15.153Z,21.70
2018-01-18T16:39:42.755Z,22.40
2018-01-18T16:42:10.396Z,22.90
2018-01-18T16:44:38.014Z,22.60
2018-01-18T16:47:05.696Z,22.80
2018-01-18T16:49:33.488Z,24.30
2018-01-18T16:52:01.894Z,24.20
2018-01-18T16:54:30.284Z,23.90
2018-01-18T16:56:57.917Z,23.70
2018-01-18T16:59:25.528Z,23.20
2018-01-18T17:01:53.994Z,23.40
2018-01-18T17:04:21.733Z,23.30
2018-01-18T17:06:49.347Z,23.50
2018-01-18T17:09:16.951Z,22.60
2018-01-18T17:11:45.359Z,23.80
2018-01-18T17:14:13.117Z,23.80
2018-01-18T17:16:40.741Z,23.90
2018-01-18T17:19:08.377Z,23.90
2018-01-18T17:21:36.745Z,24.10
2018-01-18T17:24:04.513Z,24.20
2018-01-18T17:26:32.214Z,24.10
2018-01-18T17:29:00.588Z,25.00
2018-01-18T17:31:28.197Z,25.00
2018-01-18T17:33:56.604Z,24.80
2018-01-18T17:36:24.206Z,25.90
2018-01-18T17:38:51.825Z,26.20
2018-01-18T17:41:19.470Z,25.10
2018-01-18T17:43:48.446Z,25.60
2018-01-18T17:46:16.073Z,25.50
2018-01-18T17:48:45.211Z,24.90
2018-01-18T17:51:13.157Z,25.70
2018-01-18T17:53:40.753Z,26.70
2018-01-18T17:56:09.283Z,26.40
2018-01-18T17:58:36.890Z,26.80
2018-01-18T18:01:04.497Z,26.20
2018-01-18T18:03:32.140Z,27.50
2018-01-18T18:05:59.890Z,27.70
2018-01-18T18:08:27.492Z,27.20
2018-01-18T18:10:55.173Z,27.60
2018-01-18T18:13:22.798Z,27.70
2018-01-18T18:15:50.401Z,28.20
2018-01-18T18:18:18.033Z,28.50
2018-01-18T18:20:46.356Z,28.50
2018-01-18T18:23:14.051Z,28.50
2018-01-18T18:25:41.687Z,28.90
2018-01-18T18:28:09.285Z,29.60
2018-01-18T18:30:36.879Z,30.10
2018-01-18T18:33:04.515Z,29.80
2018-01-18T18:35:32.126Z,30.90
2018-01-18T18:38:00.270Z,30.40
2018-01-18T18:40:27.922Z,30.80
2018-01-18T18:42:56.147Z,31.00
2018-01-18T18:45:23.886Z,30.60
2018-01-18T18:47:51.528Z,30.90
2018-01-18T18:50:20.998Z,31.70
2018-01-18T18:52:48.684Z,31.70
2018-01-18T18:55:16.398Z,31.30
2018-01-18T18:57:44.095Z,31.70
2018-01-18T19:00:11.706Z,31.50
2018-01-18T19:02:39.342Z,31.70
2018-01-18T19:05:07.237Z,32.00
2018-01-18T19:07:35.530Z,31.60
2018-01-18T19:10:03.388Z,32.10
2018-01-18T19:12:31.780Z,33.60
2018-01-18T19:14:59.384Z,33.60
2018-01-18T19:17:27.033Z,33.50
2018-01-18T19:19:56.283Z,33.90
2018-01-18T19:22:23.884Z,34.00
2018-01-18T19:24:51.562Z,34.50
2018-01-18T19:27:19.195Z,34.50
2018-01-18T19:29:46.788Z,34.40
2018-01-18T19:32:14.420Z,34.20
2018-01-18T19:34:42.016Z,34.10
2018-01-18T19:37:09.645Z,34.50
2018-01-18T19:39:37.378Z,32.20
2018-01-18T19:42:04.977Z,33.40
2018-01-18T19:44:46.283Z,34.20
2018-01-18T19:47:14.701Z,33.30
2018-01-18T19:49:43.098Z,33.60
2018-01-18T19:52:10.702Z,33.60
2018-01-18T19:54:38.397Z,35.00
2018-01-18T19:57:06.034Z,34.50
2018-01-18T19:59:33.637Z,34.70
2018-01-18T20:02:01.258Z,35.10
2018-01-18T20:04:29.657Z,36.10
2018-01-18T20:06:58.022Z,35.40
2018-01-18T20:09:26.394Z,36.30
2018-01-18T20:11:54.036Z,35.70
2018-01-18T20:14:34.414Z,36.40
2018-01-18T20:17:04.666Z,37.50
2018-01-18T20:19:33.205Z,36.30
2018-01-18T20:22:02.329Z,36.30
2018-01-18T20:24:29.965Z,36.30
2018-01-18T20:26:57.565Z,36.80
2018-01-18T20:29:25.933Z,36.90
2018-01-18T20:31:53.574Z,37.00
2018-01-18T20:34:21.177Z,37.80
2018-01-18T20:36:48.786Z,38.30
2018-01-18T20:39:17.473Z,40.10
2018-01-18T20:41:45.836Z,41.60
2018-01-18T20:44:13.444Z,41.60
2018-01-18T20:46:41.845Z,44.60
2018-01-18T20:49:09.664Z,44.70
2018-01-18T20:51:38.093Z,46.10
2018-01-18T20:54:05.728Z,46.80
2018-01-18T20:56:33.345Z,47.10
2018-01-18T20:59:01.722Z,48.00
2018-01-18T21:01:29.356Z,48.00
2018-01-18T21:03:56.970Z,48.90
2018-01-18T21:06:24.615Z,48.80
2018-01-18T21:08:52.241Z,49.60
2018-01-18T21:11:20.625Z,50.40
2018-01-18T21:13:49.006Z,50.50
2018-01-18T21:16:16.634Z,50.50
2018-01-18T21:18:44.236Z,51.10
2018-01-18T21:21:11.840Z,52.30
2018-01-18T21:23:40.477Z,57.50
2018-01-18T21:26:08.153Z,57.40
2018-01-18T21:28:35.751Z,63.50
2018-01-18T21:31:03.394Z,76.80
2018-01-18T21:33:31.001Z,87.70
2018-01-18T21:35:58.615Z,94.40
2018-01-18T21:38:27.062Z,99.10
2018-01-18T21:40:54.797Z,99.10
2018-01-18T21:43:22.404Z,99.90
2018-01-18T21:45:50.042Z,99.90
2018-01-18T21:48:18.422Z,99.90
2018-01-18T21:50:46.798Z,99.90
2018-01-18T21:53:15.197Z,99.90
2018-01-18T21:55:43.564Z,99.90
2018-01-18T21:58:11.177Z,99.90
2018-01-18T22:00:38.820Z,99.90
2018-01-18T22:03:06.425Z,99.90
2018-01-18T22:05:34.036Z,99.90
2018-01-18T22:08:01.672Z,99.90
2018-01-18T22:10:29.272Z,99.90
2018-01-18T22:12:56.873Z,99.90
2018-01-18T22:15:24.510Z,99.90
2018-01-18T22:17:52.113Z,99.90
2018-01-18T22:20:21.310Z,99.90
2018-01-18T22:22:48.946Z,99.90
2018-01-18T22:25:16.553Z,99.90
2018-01-18T22:27:44.158Z,99.90
2018-01-18T22:30:11.790Z,99.90
2018-01-18T22:32:39.399Z,99.90
2018-01-18T22:35:07.002Z,99.90
2018-01-18T22:37:35.417Z,99.90
2018-01-18T22:40:03.022Z,99.90
2018-01-18T22:42:30.625Z,99.90
2018-01-18T22:44:58.263Z,99.90
2018-01-18T22:47:25.864Z,99.90
2018-01-18T22:49:53.977Z,99.90
2018-01-18T22:52:22.382Z,99.90
2018-01-18T22:54:50.753Z,99.90
2018-01-18T22:57:19.132Z,99.90
2018-01-18T22:59:46.765Z,99.90
2018-01-18T23:02:14.364Z,99.90
2018-01-18T23:04:41.969Z,99.90
2018-01-18T23:07:10.381Z,99.90
2018-01-18T23:09:37.992Z,99.90
2018-01-18T23:12:05.596Z,99.90
2018-01-18T23:14:33.233Z,99.90
2018-01-18T23:17:00.841Z,99.90
2018-01-18T23:19:28.449Z,99.90
2018-01-18T23:21:56.092Z,99.90
2018-01-18T23:24:23.701Z,99.90
2018-01-18T23:26:51.314Z,99.90
2018-01-18T23:29:18.949Z,99.90
2018-01-18T23:31:46.558Z,99.90
2018-01-18T23:34:14.169Z,99.90
2018-01-18T23:36:42.572Z,99.90
2018-01-18T23:39:10.942Z,99.90
2018-01-18T23:41:38.544Z,99.90
2018-01-18T23:44:06.184Z,99.90
2018-01-18T23:46:33.788Z,99.90
2018-01-18T23:49:02.169Z,99.90
2018-01-18T23:51:30.583Z,99.90
2018-01-18T23:53:58.190Z,99.90
2018-01-18T23:56:25.796Z,99.90
2018-01-18T23:58:53.428Z,99.90
